weather.gov     
National Weather Service

Terminal Aerodrome Forecast
NWS Homepage
This page is being discontinued on March 12, 2014.
The same data is available at this site. Please update your bookmarks.
Thank you, and we apologize for the inconvenience.
Please send an email to SR-SRH.Webmaster@noaa.gov with any concerns.


Current Version
Previous Version:    01  02  03  04  05  06  07  08  09  10  11  12  13  14  15  16  17  18  19  20  21  22  23  24  25  26  27  28  29  30  
   31  32  33  
[Printable]
514
FTUS41 KBTV 222343
TAFRUT
TAF
KRUT 222343Z 2300/2324 35012G17KT P6SM VCSH SCT027 OVC035
      TEMPO 2300/2304 -SHRA BKN015
     FM230400 36010KT P6SM OVC015
      TEMPO 2304/2308 -SHRA
     FM230900 36011KT 4SM -RA BR OVC007
     FM231500 36009G17KT 4SM -RA BR SCT007 OVC015=


514
FTUS41 KBTV 222343
TAFRUT
TAF
KRUT 222343Z 2300/2324 35012G17KT P6SM VCSH SCT027 OVC035
      TEMPO 2300/2304 -SHRA BKN015
     FM230400 36010KT P6SM OVC015
      TEMPO 2304/2308 -SHRA
     FM230900 36011KT 4SM -RA BR OVC007
     FM231500 36009G17KT 4SM -RA BR SCT007 OVC015=




U.S. Dept. of Commerce
NOAA National Weather Service
1325 East West Highway
Silver Spring, MD 20910
E-mail: w-nws.webmaster@noaa.gov
Page last modified: May 16, 2007
NATIONAL WEATHER SERVICE: for Safety, for Work, for Fun - FOR LIFE